createdAt,value
2022-11-23T00:01:16.919Z,21.17
2022-11-23T00:03:44.905Z,20.00
2022-11-23T00:06:11.841Z,20.92
2022-11-23T00:08:38.562Z,22.67
2022-11-23T00:11:05.443Z,18.35
2022-11-23T00:13:32.473Z,19.20
2022-11-23T00:15:58.995Z,19.38
2022-11-23T00:18:25.596Z,17.60
2022-11-23T00:20:52.175Z,19.15
2022-11-23T00:23:18.761Z,17.92
2022-11-23T00:25:46.814Z,18.05
2022-11-23T00:28:13.556Z,19.48
2022-11-23T00:30:40.205Z,18.95
2022-11-23T00:33:06.783Z,16.75
2022-11-23T00:35:33.341Z,18.80
2022-11-23T00:37:59.888Z,17.92
2022-11-23T00:40:26.467Z,20.38
2022-11-23T00:42:53.010Z,16.63
2022-11-23T00:45:19.610Z,18.40
2022-11-23T00:47:46.142Z,19.17
2022-11-23T00:50:12.754Z,15.98
2022-11-23T00:52:39.379Z,17.08
2022-11-23T00:55:06.328Z,20.77
2022-11-23T00:57:36.558Z,18.27
2022-11-23T01:00:04.528Z,16.83
2022-11-23T01:02:31.070Z,15.90
2022-11-23T01:04:57.607Z,16.83
2022-11-23T01:07:24.262Z,13.90
2022-11-23T01:09:50.813Z,14.93
2022-11-23T01:12:17.391Z,14.15
2022-11-23T01:14:43.971Z,13.63
2022-11-23T01:17:10.503Z,12.43
2022-11-23T01:19:37.019Z,12.45
2022-11-23T01:22:03.578Z,12.38
2022-11-23T01:24:30.301Z,15.95
2022-11-23T01:26:56.898Z,11.77
2022-11-23T01:29:24.718Z,13.77
2022-11-23T01:31:51.300Z,15.63
2022-11-23T01:34:18.070Z,16.58
2022-11-23T01:36:45.384Z,17.55
2022-11-23T01:39:13.155Z,16.00
2022-11-23T01:41:43.176Z,16.52
2022-11-23T01:44:30.295Z,16.92
2022-11-23T01:47:05.290Z,14.93
2022-11-23T01:52:08.579Z,14.82
2022-11-23T01:54:43.777Z,16.13
2022-11-23T01:57:16.848Z,16.20
2022-11-23T01:59:43.646Z,16.25
2022-11-23T02:02:10.316Z,16.10
2022-11-23T02:04:40.879Z,15.77
2022-11-23T02:07:08.457Z,14.60
2022-11-23T02:09:36.373Z,15.32
2022-11-23T02:12:03.106Z,14.85
2022-11-23T02:14:30.257Z,14.63
2022-11-23T02:16:59.977Z,16.45
2022-11-23T02:19:45.234Z,15.25
2022-11-23T02:22:22.182Z,16.83
2022-11-23T02:24:54.130Z,14.13
2022-11-23T02:27:22.821Z,12.15
2022-11-23T02:29:50.995Z,13.82
2022-11-23T02:32:23.715Z,15.75
2022-11-23T02:34:50.823Z,13.00
2022-11-23T02:37:18.796Z,11.65
2022-11-23T02:39:48.241Z,14.65
2022-11-23T02:42:14.921Z,12.95
2022-11-23T02:45:00.480Z,11.05
2022-11-23T02:47:27.209Z,13.70
2022-11-23T02:49:53.868Z,15.48
2022-11-23T02:52:20.422Z,17.08
2022-11-23T02:54:47.320Z,15.20
2022-11-23T02:57:14.491Z,17.02
2022-11-23T02:59:41.100Z,13.45
2022-11-23T03:02:07.717Z,17.38
2022-11-23T03:04:34.394Z,16.50
2022-11-23T03:07:01.075Z,14.27
2022-11-23T03:09:28.324Z,15.40
2022-11-23T03:11:55.249Z,15.20
2022-11-23T03:14:22.126Z,17.27
2022-11-23T03:16:48.734Z,16.00
2022-11-23T03:19:15.572Z,18.05
2022-11-23T03:21:42.222Z,17.98
2022-11-23T03:24:08.777Z,18.83
2022-11-23T03:26:35.472Z,14.77
2022-11-23T03:29:02.138Z,15.75
2022-11-23T03:31:28.710Z,21.92
2022-11-23T03:33:55.257Z,20.60
2022-11-23T03:36:21.838Z,15.20
2022-11-23T03:38:48.461Z,19.67
2022-11-23T03:41:15.025Z,16.70
2022-11-23T03:43:41.590Z,18.55
2022-11-23T03:46:08.151Z,17.73
2022-11-23T03:48:34.732Z,18.63
2022-11-23T03:51:01.321Z,20.27
2022-11-23T03:53:27.918Z,15.52
2022-11-23T03:55:57.543Z,15.52
2022-11-23T03:58:24.248Z,14.82
2022-11-23T04:00:51.308Z,15.20
2022-11-23T04:03:17.943Z,16.67
2022-11-23T04:05:44.544Z,18.67
2022-11-23T04:08:11.145Z,16.05
2022-11-23T04:10:37.738Z,15.82
2022-11-23T04:13:04.376Z,17.05
2022-11-23T04:15:30.926Z,23.83
2022-11-23T04:17:57.520Z,14.30
2022-11-23T04:20:24.155Z,16.48
2022-11-23T04:22:50.771Z,16.23
2022-11-23T04:25:17.863Z,19.95
2022-11-23T04:27:45.439Z,16.33
2022-11-23T04:30:12.406Z,13.68
2022-11-23T04:32:38.939Z,16.80
2022-11-23T04:35:05.982Z,15.25
2022-11-23T04:37:32.617Z,14.50
2022-11-23T04:39:59.199Z,14.65
2022-11-23T04:42:25.836Z,13.20
2022-11-23T04:44:52.429Z,12.32
2022-11-23T04:47:18.975Z,13.68
2022-11-23T04:49:45.562Z,14.32
2022-11-23T04:52:12.431Z,14.75
2022-11-23T04:54:38.974Z,14.75
2022-11-23T04:57:05.594Z,13.88
2022-11-23T04:59:32.455Z,17.90
2022-11-23T05:01:59.296Z,14.00
2022-11-23T05:04:25.943Z,14.38
2022-11-23T05:06:52.550Z,12.93
2022-11-23T05:09:19.222Z,13.63
2022-11-23T05:11:45.864Z,13.07
2022-11-23T05:14:12.487Z,13.35
2022-11-23T05:16:39.053Z,13.80
2022-11-23T05:19:05.750Z,14.70
2022-11-23T05:21:32.273Z,13.05
2022-11-23T05:23:58.780Z,15.13
2022-11-23T05:26:25.461Z,14.55
2022-11-23T05:28:52.041Z,15.38
2022-11-23T05:31:19.483Z,14.18
2022-11-23T05:33:46.388Z,13.88
2022-11-23T05:36:15.864Z,13.10
2022-11-23T05:38:42.986Z,14.50
2022-11-23T05:41:09.681Z,16.38
2022-11-23T05:43:36.298Z,11.95
2022-11-23T05:46:03.691Z,10.65
2022-11-23T05:48:30.329Z,13.60
2022-11-23T05:51:02.202Z,11.20
2022-11-23T05:53:31.563Z,10.57
2022-11-23T05:56:02.565Z,11.10
2022-11-23T05:58:29.462Z,12.15
2022-11-23T06:01:00.302Z,12.93
2022-11-23T06:03:27.350Z,10.90
2022-11-23T06:05:53.978Z,10.60
2022-11-23T06:08:20.662Z,10.70
2022-11-23T06:10:47.283Z,12.25
2022-11-23T06:13:13.833Z,10.45
2022-11-23T06:15:40.438Z,12.40
2022-11-23T06:18:07.049Z,11.25
2022-11-23T06:20:33.676Z,12.07
2022-11-23T06:23:00.298Z,12.63
2022-11-23T06:25:27.107Z,10.23
2022-11-23T06:28:01.297Z,10.52
2022-11-23T06:30:30.250Z,10.00
2022-11-23T06:32:57.167Z,10.57
2022-11-23T06:35:24.305Z,10.38
2022-11-23T06:37:52.108Z,11.13
2022-11-23T06:40:18.776Z,9.38
2022-11-23T06:42:45.499Z,11.45
2022-11-23T06:45:12.695Z,12.02
2022-11-23T06:47:39.391Z,10.15
2022-11-23T06:50:07.104Z,11.00
2022-11-23T06:52:33.762Z,10.05
2022-11-23T06:55:00.375Z,11.73
2022-11-23T06:57:26.972Z,9.82
2022-11-23T06:59:53.510Z,9.45
2022-11-23T07:02:20.031Z,10.48
2022-11-23T07:04:46.667Z,10.15
2022-11-23T07:07:13.256Z,15.73
2022-11-23T07:09:39.885Z,11.68
2022-11-23T07:12:06.761Z,13.25
2022-11-23T07:14:33.319Z,11.93
2022-11-23T07:16:59.873Z,14.45
2022-11-23T07:19:26.514Z,11.27
2022-11-23T07:21:53.082Z,22.90
2022-11-23T09:34:15.001Z,14.43
2022-11-23T09:36:41.750Z,13.00
2022-11-23T09:39:08.590Z,11.88
2022-11-23T09:41:50.258Z,13.15
2022-11-23T09:44:19.924Z,13.65
2022-11-23T09:47:19.037Z,11.43
2022-11-23T09:50:09.262Z,12.77
2022-11-23T09:52:40.572Z,13.38
2022-11-23T09:55:40.127Z,16.80
2022-11-23T09:58:07.673Z,14.27
2022-11-23T10:01:04.056Z,14.68
2022-11-23T10:03:47.039Z,16.35
2022-11-23T10:06:22.674Z,15.88
2022-11-23T10:08:55.020Z,15.93
2022-11-23T10:11:55.218Z,19.05
2022-11-23T10:14:47.318Z,15.15
2022-11-23T10:17:38.237Z,18.08
2022-11-23T10:20:20.674Z,15.13
2022-11-23T10:22:56.236Z,16.42
2022-11-23T10:25:24.114Z,23.25
2022-11-23T10:27:56.995Z,15.27
2022-11-23T10:30:23.786Z,17.50
2022-11-23T10:33:22.396Z,15.25
2022-11-23T10:35:48.991Z,18.58
2022-11-23T10:38:19.385Z,17.73
2022-11-23T10:41:08.769Z,16.10
2022-11-23T10:43:40.508Z,16.50
2022-11-23T10:46:29.343Z,19.67
2022-11-23T10:48:56.882Z,15.98
2022-11-23T10:51:33.638Z,16.95
2022-11-23T10:54:06.110Z,17.77
2022-11-23T10:56:34.274Z,17.95
2022-11-23T10:59:01.142Z,18.48
2022-11-23T11:01:30.312Z,15.73
2022-11-23T11:04:04.003Z,15.85
2022-11-23T11:06:34.660Z,16.40
2022-11-23T11:09:09.547Z,18.30
2022-11-23T11:11:40.094Z,16.35
2022-11-23T11:14:18.589Z,14.88
2022-11-23T11:16:49.291Z,15.07
2022-11-23T11:19:27.522Z,14.27
2022-11-23T11:21:54.496Z,17.63
2022-11-23T11:24:29.121Z,13.73
2022-11-23T11:27:01.921Z,14.90
2022-11-23T11:29:39.346Z,11.27
2022-11-23T11:32:18.604Z,12.63
2022-11-23T11:34:49.955Z,15.73
2022-11-23T11:37:22.584Z,14.32
2022-11-23T11:40:09.485Z,14.82
2022-11-23T11:42:43.994Z,15.88
2022-11-23T11:45:19.358Z,14.20
2022-11-23T11:48:00.380Z,15.43
2022-11-23T11:50:32.306Z,25.50
2022-11-23T11:53:13.672Z,26.05
2022-11-23T11:56:04.680Z,15.43
2022-11-23T11:58:38.870Z,15.52
2022-11-23T12:01:35.651Z,16.40
2022-11-23T12:04:08.370Z,12.75
2022-11-23T12:06:43.082Z,92.63
2022-11-23T12:09:16.518Z,30.52
2022-11-23T12:11:43.212Z,39.20
2022-11-23T12:14:13.419Z,31.67
2022-11-23T12:17:17.050Z,17.83
2022-11-23T12:20:13.434Z,142.00
2022-11-23T12:22:42.657Z,95.10
2022-11-23T12:25:38.413Z,27.77
2022-11-23T12:31:00.810Z,56.93
2022-11-23T12:33:58.430Z,27.77
2022-11-23T12:36:45.166Z,20.83
2022-11-23T12:39:30.350Z,16.27
2022-11-23T12:42:21.833Z,18.40
2022-11-23T12:45:15.888Z,16.15
2022-11-23T12:48:00.743Z,16.42
2022-11-23T12:50:53.508Z,14.52
2022-11-23T12:53:49.001Z,16.27
2022-11-23T12:56:39.969Z,17.55
2022-11-23T12:59:11.141Z,22.45
2022-11-23T13:01:51.670Z,34.75
2022-11-23T13:04:46.060Z,26.55
2022-11-23T13:07:49.436Z,20.20
2022-11-23T13:10:53.925Z,18.02
2022-11-23T13:13:48.865Z,15.20
2022-11-23T13:16:37.301Z,16.75
2022-11-23T13:19:09.971Z,15.65
2022-11-23T13:21:40.239Z,18.10
2022-11-23T13:24:33.219Z,15.07
2022-11-23T13:27:15.164Z,12.40
2022-11-23T13:30:08.449Z,14.68
2022-11-23T13:33:00.088Z,15.55
2022-11-23T13:35:29.464Z,24.73
2022-11-23T13:37:55.967Z,23.40
2022-11-23T13:40:31.821Z,16.00
2022-11-23T13:43:02.066Z,29.05
2022-11-23T13:45:37.902Z,14.88
2022-11-23T13:48:34.136Z,15.85
2022-11-23T13:51:01.641Z,13.00
2022-11-23T13:53:36.762Z,13.75
2022-11-23T13:56:24.598Z,12.68
2022-11-23T13:58:52.843Z,14.82
2022-11-23T14:01:56.972Z,14.70
2022-11-23T14:04:25.447Z,18.20
2022-11-23T14:06:58.360Z,15.80
2022-11-23T14:09:33.231Z,11.27
2022-11-23T14:12:11.887Z,14.63
2022-11-23T14:14:41.060Z,15.07
2022-11-23T14:17:09.261Z,14.30
2022-11-23T14:20:11.320Z,14.18
2022-11-23T14:22:43.693Z,13.88
2022-11-23T14:25:22.765Z,13.52
2022-11-23T14:28:07.819Z,14.32
2022-11-23T14:30:43.238Z,16.02
2022-11-23T14:33:09.782Z,15.77
2022-11-23T14:35:45.101Z,13.02
2022-11-23T14:38:48.951Z,16.67
2022-11-23T14:41:23.715Z,16.70
2022-11-23T14:43:51.159Z,17.08
2022-11-23T14:46:20.718Z,17.85
2022-11-23T14:48:48.896Z,16.65
2022-11-23T14:51:22.635Z,17.88
2022-11-23T14:53:56.055Z,17.85
2022-11-23T14:56:33.474Z,14.48
2022-11-23T14:59:27.859Z,20.65
2022-11-23T15:02:02.090Z,21.67
2022-11-23T15:04:35.206Z,21.35
2022-11-23T15:07:17.688Z,20.58
2022-11-23T15:09:58.040Z,22.13
2022-11-23T15:12:25.567Z,29.88
2022-11-23T15:14:57.739Z,35.45
2022-11-23T15:17:24.963Z,33.72
2022-11-23T15:19:59.898Z,35.97
2022-11-23T15:24:54.483Z,39.17
2022-11-23T15:27:30.199Z,30.20
2022-11-23T15:29:59.512Z,35.45
2022-11-23T15:32:33.738Z,30.83
2022-11-23T15:35:04.329Z,39.17
2022-11-23T15:37:33.177Z,31.30
2022-11-23T15:40:00.608Z,36.60
2022-11-23T15:42:28.281Z,35.33
2022-11-23T15:44:55.542Z,32.70
2022-11-23T15:47:28.511Z,37.00
2022-11-23T15:50:01.467Z,36.22
2022-11-23T15:52:33.189Z,28.80
2022-11-23T15:55:08.903Z,32.78
2022-11-23T15:57:37.736Z,35.35
2022-11-23T16:00:06.826Z,36.60
2022-11-23T16:02:33.521Z,38.95
2022-11-23T16:05:22.453Z,39.83
2022-11-23T16:07:57.659Z,37.90
2022-11-23T16:10:37.531Z,40.30
2022-11-23T16:13:06.090Z,42.25
2022-11-23T16:15:38.574Z,42.72
2022-11-23T16:18:21.810Z,41.45
2022-11-23T16:20:50.499Z,46.13
2022-11-23T16:23:22.449Z,50.08
2022-11-23T16:25:56.878Z,51.25
2022-11-23T16:28:49.651Z,49.97
2022-11-23T16:31:38.036Z,50.13
2022-11-23T16:34:17.284Z,43.97
2022-11-23T16:36:43.884Z,46.70
2022-11-23T16:39:11.153Z,46.13
2022-11-23T16:41:38.264Z,45.38
2022-11-23T16:44:05.450Z,37.38
2022-11-23T16:46:32.208Z,45.28
2022-11-23T16:49:00.286Z,44.42
2022-11-23T16:51:26.899Z,45.30
2022-11-23T16:54:13.020Z,53.55
2022-11-23T16:56:41.088Z,44.00
2022-11-23T16:59:16.962Z,40.17
2022-11-23T17:01:52.551Z,34.60
2022-11-23T17:04:20.867Z,33.17
2022-11-23T17:06:47.468Z,30.48
2022-11-23T17:09:14.059Z,34.40
2022-11-23T17:11:45.126Z,31.70
2022-11-23T17:14:19.014Z,32.60
2022-11-23T17:16:46.833Z,38.00
2022-11-23T17:19:18.563Z,35.70
2022-11-23T17:21:45.769Z,36.85
2022-11-23T17:24:13.785Z,33.03
2022-11-23T17:26:43.194Z,34.15
2022-11-23T17:29:15.019Z,35.03
2022-11-23T17:31:43.621Z,35.00
2022-11-23T17:34:10.378Z,37.58
2022-11-23T17:36:37.736Z,35.38
2022-11-23T17:39:05.304Z,38.63
2022-11-23T17:41:32.021Z,34.95
2022-11-23T17:43:59.976Z,41.42
2022-11-23T17:46:31.587Z,42.55
2022-11-23T17:48:59.753Z,45.05
2022-11-23T17:51:26.592Z,43.80
2022-11-23T17:53:53.232Z,50.10
2022-11-23T17:56:22.602Z,43.92
2022-11-23T17:58:50.502Z,48.33
2022-11-23T18:01:18.981Z,45.00
2022-11-23T18:03:46.495Z,41.00
2022-11-23T18:06:24.558Z,46.42
2022-11-23T18:08:51.978Z,43.40
2022-11-23T18:11:19.427Z,50.28
2022-11-23T18:13:48.025Z,46.22
2022-11-23T18:16:14.830Z,47.03
2022-11-23T18:18:41.479Z,47.88
2022-11-23T18:21:09.794Z,47.95
2022-11-23T18:23:37.344Z,48.42
2022-11-23T18:26:12.966Z,43.40
2022-11-23T18:28:39.618Z,49.35
2022-11-23T18:31:06.686Z,52.35
2022-11-23T18:33:33.321Z,43.55
2022-11-23T18:36:05.154Z,45.83
2022-11-23T18:38:33.328Z,47.70
2022-11-23T18:41:00.165Z,41.58
2022-11-23T18:43:26.805Z,44.75
2022-11-23T18:45:53.605Z,45.75
2022-11-23T18:48:20.177Z,43.63
2022-11-23T18:50:46.947Z,46.55
2022-11-23T18:53:13.462Z,54.80
2022-11-23T18:55:40.082Z,48.38
2022-11-23T18:58:07.126Z,48.42
2022-11-23T19:00:33.900Z,51.53
2022-11-23T19:03:02.375Z,50.38
2022-11-23T19:05:35.787Z,52.13
2022-11-23T19:08:04.690Z,53.38
2022-11-23T19:10:33.204Z,54.40
2022-11-23T19:13:05.062Z,53.78
2022-11-23T19:15:32.933Z,46.33
2022-11-23T19:17:59.911Z,50.60
2022-11-23T19:20:26.603Z,47.08
2022-11-23T19:22:53.203Z,50.13
2022-11-23T19:25:19.838Z,53.60
2022-11-23T19:27:48.953Z,56.25
2022-11-23T19:30:16.112Z,55.50
2022-11-23T19:32:42.763Z,51.55
2022-11-23T19:35:09.744Z,52.97
2022-11-23T19:37:36.833Z,46.97
2022-11-23T19:40:03.939Z,56.33
2022-11-23T19:42:30.564Z,51.40
2022-11-23T19:44:57.178Z,52.97
2022-11-23T19:47:23.768Z,52.85
2022-11-23T19:49:50.349Z,51.05
2022-11-23T19:52:16.950Z,48.15
2022-11-23T19:54:43.617Z,54.00
2022-11-23T19:57:10.557Z,56.28
2022-11-23T19:59:37.106Z,51.05
2022-11-23T20:02:03.855Z,50.35
2022-11-23T20:04:30.688Z,50.00
2022-11-23T20:06:57.306Z,54.10
2022-11-23T20:09:24.047Z,49.60
2022-11-23T20:11:51.788Z,57.17
2022-11-23T20:14:18.700Z,53.47
2022-11-23T20:16:45.403Z,51.72
2022-11-23T20:19:11.968Z,45.53
2022-11-23T20:21:38.706Z,50.45
2022-11-23T20:24:15.677Z,57.50
2022-11-23T20:26:42.877Z,56.08
2022-11-23T20:29:10.394Z,55.65
2022-11-23T20:31:37.751Z,54.45
2022-11-23T20:34:07.324Z,55.65
2022-11-23T20:36:37.409Z,58.10
2022-11-23T20:39:06.992Z,55.75
2022-11-23T20:41:35.394Z,47.55
2022-11-23T20:44:07.326Z,54.30
2022-11-23T20:49:20.990Z,54.67
2022-11-23T20:51:47.714Z,51.28
2022-11-23T20:54:14.270Z,54.20
2022-11-23T20:56:40.813Z,50.70
2022-11-23T20:59:07.367Z,51.47
2022-11-23T21:01:34.706Z,53.60
2022-11-23T21:04:01.465Z,49.97
2022-11-23T21:06:28.566Z,53.08
2022-11-23T21:08:55.517Z,49.42
2022-11-23T21:11:45.939Z,52.80
2022-11-23T21:14:17.879Z,54.55
2022-11-23T21:16:53.514Z,48.85
2022-11-23T21:19:30.896Z,49.85
2022-11-23T21:21:59.276Z,53.05
2022-11-23T21:24:26.026Z,45.83
2022-11-23T21:26:52.681Z,50.38
2022-11-23T21:29:19.699Z,50.67
2022-11-23T21:31:48.771Z,52.13
2022-11-23T21:34:26.391Z,48.70
2022-11-23T21:36:54.492Z,50.63
2022-11-23T21:39:21.326Z,54.13
2022-11-23T21:41:50.222Z,53.40
2022-11-23T21:44:17.894Z,53.33
2022-11-23T21:46:44.519Z,48.40
2022-11-23T21:49:11.227Z,51.88
2022-11-23T21:51:39.337Z,55.95
2022-11-23T21:54:08.002Z,52.13
2022-11-23T21:56:34.549Z,53.28
2022-11-23T21:59:01.482Z,55.15
2022-11-23T22:01:33.415Z,54.65
2022-11-23T22:04:01.898Z,49.72
2022-11-23T22:06:28.994Z,48.42
2022-11-23T22:08:57.887Z,45.70
2022-11-23T22:11:27.222Z,53.90
2022-11-23T22:14:00.235Z,51.42
2022-11-23T22:16:29.903Z,54.10
2022-11-23T22:18:56.991Z,49.78
2022-11-23T22:21:26.162Z,52.55
2022-11-23T22:23:52.833Z,55.55
2022-11-23T22:26:21.017Z,49.35
2022-11-23T22:28:49.888Z,49.83
2022-11-23T22:31:19.417Z,54.30
2022-11-23T22:33:46.353Z,52.63
2022-11-23T22:36:16.978Z,54.30
2022-11-23T22:38:44.737Z,57.70
2022-11-23T22:41:16.994Z,55.85
2022-11-23T22:43:44.147Z,59.72
2022-11-23T22:46:13.620Z,58.63
2022-11-23T22:48:41.620Z,52.63
2022-11-23T22:51:13.562Z,52.90
2022-11-23T22:53:44.859Z,46.03
2022-11-23T22:56:17.861Z,44.40
2022-11-23T22:58:45.502Z,44.85
2022-11-23T23:01:14.641Z,41.55
2022-11-23T23:03:42.244Z,40.47
2022-11-23T23:06:17.398Z,38.63
2022-11-23T23:11:11.394Z,33.92
2022-11-23T23:13:38.006Z,38.85
2022-11-23T23:16:11.777Z,40.67
2022-11-23T23:18:38.802Z,38.33
2022-11-23T23:21:10.998Z,40.03
2022-11-23T23:23:38.860Z,38.55
2022-11-23T23:26:06.562Z,43.30
2022-11-23T23:28:33.613Z,43.50
2022-11-23T23:31:11.494Z,40.20
2022-11-23T23:33:38.333Z,38.25
2022-11-23T23:36:09.477Z,41.42
2022-11-23T23:38:39.398Z,42.30
2022-11-23T23:41:07.377Z,37.80
2022-11-23T23:43:34.427Z,43.60
2022-11-23T23:46:04.692Z,41.33
2022-11-23T23:48:33.814Z,42.60
2022-11-23T23:51:24.071Z,45.50
2022-11-23T23:53:51.506Z,44.00
2022-11-23T23:56:24.052Z,42.72
2022-11-23T23:58:51.268Z,42.90
